Terminal Aerodrome Forecast
Issued by NWS

Home | Current Version | Previous Version | Text Only | Print | Product List | Glossary On
Versions: 1 2 3 4 5 6 7 8 9 10 11 12 13 14 15
000
FTUS42 KMLB 231140
TAFSFB
TAF
KSFB 231140Z 2312/2412 15006KT P6SM FEW025 OVC200
     FM231400 16008KT P6SM SCT025 OVC200
     FM231800 17009KT P6SM VCSH BKN040 OVC200
      TEMPO 2320/2323 3SM SHRA BKN030
     FM232300 18006KT P6SM VCSH SCT040 BKN080=

USA.gov is the U.S. government's official web portal to all federal, state and local government web resources and services.